N8LZG Weather Reports


time (UTC)temp
F
wind
direction
speed
knots
gust
knots
rain 1hr
in
rain 24hr
in
rain mn
in
humidity
%
barometer
mb
20260903011520 82 336 0.0 0.9 0.00 0.00 0.00 74 1014.6
20260903010037 83 336 0.0 0.0 0.00 0.00 0.00 73 1014.5
20260903004518 84 336 0.0 0.0 0.00 0.00 0.00 70 1014.3
20260903003018 86 336 0.0 0.9 0.00 0.00 0.00 67 1014.3
20260903001528 87 336 0.0 0.9 0.00 0.00 0.00 64 1014.1
20260903000016 88 290 0.0 1.7 0.00 0.00 0.00 61 1014.2
20260902234526 90 323 0.0 2.6 0.00 0.00 0.00 59 1014.1
20260902233015 91 274 0.9 4.3 0.00 0.00 0.00 56 1014.1
20260902231529 92 294 0.0 2.6 0.00 0.00 0.00 55 1014.2
20260902230013 92 340 0.0 5.2 0.00 0.00 0.00 55 1014.3
20260902224511 93 333 1.7 7.0 0.00 0.00 0.00 53 1014.3
20260902223012 93 317 2.6 5.2 0.00 0.00 0.00 52 1014.3
20260902221505 94 291 2.6 7.8 0.00 0.00 0.00 51 1014.4
20260902220011 94 314 1.7 7.8 0.00 0.00 0.00 51 1014.4
20260902214504 94 323 1.7 7.0 0.00 0.00 0.00 51 1014.4
20260902213005 94 294 1.7 6.1 0.00 0.00 0.00 52 1014.5
20260902211502 93 306 2.6 7.0 0.00 0.00 0.00 50 1014.5
20260902210002 94 322 1.7 3.5 0.00 0.00 0.00 51 1014.6
20260902204600 94 306 1.7 4.3 0.00 0.00 0.00 51 1014.6
20260902203058 94 175 2.6 4.3 0.00 0.00 0.00 50 1014.7
20260902201557 94 286 2.6 9.6 0.00 0.00 0.00 48 1014.8
20260902200056 94 139 1.7 7.8 0.00 0.00 0.00 48 1014.9
20260902194553 94 286 1.7 4.3 0.00 0.00 0.00 50 1015.0
20260902193050 94 311 0.9 7.0 0.00 0.00 0.00 49 1015.3
20260902191550 93 322 0.9 7.8 0.00 0.00 0.00 50 1015.5
20260902190048 94 5 0.0 3.5 0.00 0.00 0.00 54 1015.6
20260902184545 93 360 0.0 5.2 0.00 0.00 0.00 55 1015.7
20260902183044 93 11 1.7 7.0 0.00 0.00 0.00 53 1015.8
20260902181547 92 290 0.9 4.3 0.00 0.00 0.00 56 1015.9
20260902180053 92 292 0.9 7.0 0.00 0.00 0.00 55 1016.1
20260902174540 92 294 2.6 6.1 0.00 0.00 0.00 53 1016.2
20260902173040 92 215 0.9 9.6 0.00 0.00 0.00 53 1016.4
20260902171549 92 309 0.9 5.2 0.00 0.00 0.00 56 1016.4
20260902170038 93 259 1.7 7.0 0.00 0.00 0.00 55 1016.6
20260902164535 92 170 1.7 5.2 0.00 0.00 0.00 55 1016.6
20260902163032 91 192 1.7 4.3 0.00 0.00 0.00 56 1016.7
20260902161539 91 277 0.9 4.3 0.00 0.00 0.00 59 1016.7
20260902160028 90 304 1.7 4.3 0.00 0.00 0.00 58 1016.9
20260902154531 90 220 2.6 7.0 0.00 0.00 0.00 60 1017.1
20260902153026 90 320 1.7 4.3 0.00 0.00 0.00 62 1017.1
20260902151522 89 34 0.9 4.3 0.00 0.00 0.00 64 1017.2
20260902150023 88 273 1.7 3.5 0.00 0.00 0.00 65 1017.2
20260902144516 87 226 0.0 4.3 0.00 0.00 0.00 69 1017.2
20260902143015 87 277 0.9 4.3 0.00 0.00 0.00 68 1017.2
20260902141522 86 309 0.0 2.6 0.00 0.00 0.00 72 1017.2
20260902140011 85 134 0.0 1.7 0.00 0.00 0.00 76 1017.2
20260902134505 83 227 0.0 2.6 0.00 0.00 0.00 79 1017.2
20260902133102 80 222 0.0 2.6 0.00 0.00 0.00 82 1017.2
20260902131558 79 277 0.0 1.7 0.00 0.00 0.00 84 1017.2
20260902130055 77 245 0.0 2.6 0.00 0.00 0.00 86 1017.2
20260902124554 76 274 0.0 0.0 0.00 0.00 0.00 85 1017.2
20260902123151 74 274 0.0 0.9 0.00 0.00 0.00 85 1017.0
20260902121603 73 273 0.0 0.9 0.00 0.00 0.00 85 1016.9
20260902120101 72 273 0.0 0.9 0.00 0.00 0.00 85 1017.0
20260902114607 72 273 0.0 0.9 0.00 0.00 0.00 85 1016.9
20260902113055 72 273 0.0 0.9 0.00 0.00 0.00 85 1016.7
20260902111553 72 273 0.0 0.0 0.00 0.00 0.00 85 1016.5
20260902110047 72 273 0.0 0.9 0.00 0.00 0.00 85 1016.5
20260902104546 72 273 0.0 0.9 0.00 0.00 0.00 85 1016.5
20260902103049 72 273 0.0 0.9 0.00 0.00 0.00 85 1016.5
20260902101541 72 273 0.0 0.0 0.00 0.00 0.00 85 1016.4
20260902100040 72 273 0.0 0.9 0.00 0.00 0.00 85 1016.4
20260902094539 72 273 0.0 0.9 0.00 0.00 0.00 85 1016.4
20260902093038 72 273 0.0 0.9 0.00 0.00 0.00 85 1016.3
20260902091547 72 273 0.0 0.9 0.00 0.00 0.00 85 1016.3
20260902090046 72 273 0.0 0.9 0.00 0.00 0.00 85 1016.1
20260902084533 72 273 0.0 0.9 0.00 0.00 0.00 86 1016.0
20260902083031 72 273 0.0 0.9 0.00 0.00 0.00 86 1015.8
20260902081538 72 273 0.0 0.9 0.00 0.00 0.00 86 1015.6
20260902080031 73 273 0.0 0.0 0.00 0.00 0.00 86 1015.6
20260902074539 73 273 0.0 0.0 0.00 0.00 0.00 86 1015.6
20260902073028 73 273 0.0 0.0 0.00 0.00 0.00 86 1015.6
20260902071528 73 273 0.0 0.0 0.00 0.00 0.00 86 1015.6
20260902070025 73 273 0.0 0.9 0.00 0.00 0.00 86 1015.6
20260902064531 74 273 0.0 0.9 0.00 0.00 0.00 86 1015.6
20260902063024 74 273 0.0 0.0 0.00 0.00 0.00 86 1015.5
20260902061537 74 273 0.0 0.9 0.00 0.00 0.00 86 1015.5
20260902060022 74 273 0.0 0.0 0.00 0.00 0.00 86 1015.5
20260902054534 75 273 0.0 0.0 0.00 0.00 0.00 85 1015.6
20260902053022 75 273 0.0 0.0 0.00 0.00 0.00 85 1015.6
20260902051516 75 273 0.0 0.0 0.00 0.00 0.00 85 1015.6
20260902050016 76 273 0.0 0.0 0.00 0.00 0.00 85 1015.6
20260902044514 76 273 0.0 0.9 0.00 0.00 0.00 85 1015.6
20260902043012 76 273 0.0 0.0 0.00 0.00 0.00 84 1015.5
20260902041511 77 273 0.0 0.0 0.00 0.00 0.00 84 1015.7
20260902040008 77 273 0.0 0.0 0.00 0.00 0.00 83 1015.7
20260902034520 78 273 0.0 0.9 0.00 0.00 0.00 82 1015.6
20260902033008 78 273 0.0 0.9 0.00 0.00 0.00 82 1015.7
20260902031508 78 273 0.0 0.0 0.00 0.00 0.00 81 1015.6
20260902030104 79 273 0.0 0.9 0.00 0.00 0.00 80 1015.6
20260902024503 80 273 0.0 0.9 0.00 0.00 0.00 79 1015.5
20260902023002 80 273 0.0 0.9 0.00 0.00 0.00 78 1015.5
20260902021502 80 273 0.0 0.9 0.00 0.00 0.00 77 1015.5
20260902020006 81 273 0.0 0.0 0.00 0.00 0.00 76 1015.6
20260902014506 81 273 0.0 0.9 0.00 0.00 0.00 75 1015.5
20260902013101 82 273 0.0 0.9 0.00 0.00 0.00 74 1015.5
20260902013001 82 273 0.0 0.9 0.00 0.00 0.00 74 1015.5
20260902011601 83 273 0.0 0.9 0.00 0.00 0.00 72 1015.3